Pagrindinis puslapis
METAR-TAF:

METAR-TAF

Oro uostai :

Rygge, Norvegija

platuma: 59-23N, ilguma: 010-47E, Aukštis: 5 m

Dabartinis oras

Ataskaita buvo paskelbta 11 minutes, ne 09:50 UTC
Vėjas 5 kt iš Pietų/Pietvakarių
Temperatūra 9°C
Drėgmė 81%
Slėgis 1002 hPa
Matomumas 10 km arba daugiau
Mažai debesys ne aukštis 1500 ft

METAR: ENRY 290950Z 20005KT 9999 FEW015 09/06 Q1002 NOSIG

Laikas: 11:01 (10:01 UTC)

Prognozė

Prognozė galioja nuo 29 metu 06 UTC su 30 metu 06 UTC
Vėjas 5 kt iš Pietų
Matomumas 10 km arba daugiau
Mažai debesys ne aukštis 3000 ft
Tapsmas
nuo 29 metu 23 UTC su 30 metu 01 UTC
Matomumas: 0500 m
ne aukštis 200 ft
rūkas

TAF: ENRY 2906/3006 19005KT 9999 FEW030 BECMG 2923/3001 0500 FG VV002

Orai ataskaitas ir orų prognozės (METAR, TAF).

turimą stotys yra geltonos ir raudonos taškus žemėlapyje.

Perkelti pele per norėdami pamatyti stoties vardą.

Tada spustelėkite, norėdami matyti oro stebėjimo ir prognozės.

Norėdami pakeisti žemėlapį: spustelėkite ant žalios mygtukų su juodo kryžiaus žemyn,; žalią mygtuką su brūkšneliu, jei norite nutolinti; arba žalių rodyklių gretimoms žemėlapius.


METAR-TAF: